createdAt,value
2019-03-30T00:17:19.998Z,18.48
2019-03-30T00:37:21.774Z,28.77
2019-03-30T00:57:21.176Z,20.77
2019-03-30T01:17:30.670Z,24.16
2019-03-30T01:37:40.112Z,24.66
2019-03-30T01:57:49.607Z,26.93
2019-03-30T02:17:59.107Z,26.70
2019-03-30T02:38:08.619Z,27.95
2019-03-30T02:58:20.383Z,40.44
2019-03-30T03:18:19.895Z,32.21
2019-03-30T03:38:29.360Z,31.93
2019-03-30T03:58:43.404Z,46.64
2019-03-30T04:18:47.930Z,34.48
2019-03-30T04:38:46.367Z,35.69
2019-03-30T04:58:45.899Z,46.73
2019-03-30T05:19:00.650Z,47.34
2019-03-30T05:39:00.137Z,44.85
2019-03-30T05:59:10.700Z,35.66
2019-03-30T06:19:17.071Z,32.38
2019-03-30T06:39:17.716Z,33.44
2019-03-30T06:59:18.016Z,34.58
2019-03-30T07:39:25.494Z,39.00
2019-03-30T07:59:24.987Z,32.19
2019-03-30T08:19:35.642Z,31.37
2019-03-30T08:39:36.626Z,31.71
2019-03-30T08:59:39.742Z,31.88
2019-03-30T09:19:39.278Z,27.04
2019-03-30T09:39:48.889Z,28.42
2019-03-30T09:59:58.562Z,27.21
2019-03-30T10:20:10.425Z,23.84
2019-03-30T10:40:09.946Z,20.95
2019-03-30T11:00:19.549Z,20.76
2019-03-30T11:20:29.116Z,20.40
2019-03-30T11:40:38.783Z,20.43
2019-03-30T12:00:48.231Z,16.15
2019-03-30T12:20:57.720Z,17.26
2019-03-30T12:41:07.203Z,12.72
2019-03-30T13:01:17.776Z,15.39
2019-03-30T13:21:20.529Z,16.99
2019-03-30T13:41:20.073Z,15.72
2019-03-30T14:01:29.643Z,13.87
2019-03-30T14:21:39.271Z,12.66
2019-03-30T14:41:48.650Z,11.61
2019-03-30T15:01:58.155Z,14.93
2019-03-30T15:22:07.752Z,15.43
2019-03-30T15:42:17.175Z,15.88
2019-03-30T16:02:26.672Z,17.21
2019-03-30T16:22:36.072Z,15.46
2019-03-30T16:42:45.671Z,16.23
2019-03-30T17:02:55.285Z,18.31
2019-03-30T17:23:04.873Z,20.40
2019-03-30T17:43:14.321Z,20.57
2019-03-30T18:03:23.863Z,20.82
2019-03-30T18:23:34.605Z,21.27
2019-03-30T18:43:34.096Z,22.60
2019-03-30T19:03:43.549Z,24.79
2019-03-30T19:23:53.791Z,24.55
2019-03-30T19:43:53.322Z,23.96
2019-03-30T20:04:02.856Z,21.96
2019-03-30T20:24:12.592Z,23.20
2019-03-30T20:44:24.443Z,23.30
2019-03-30T21:04:27.380Z,23.14
2019-03-30T21:24:31.385Z,24.45
2019-03-30T21:44:33.100Z,24.15
2019-03-30T22:04:32.560Z,24.93
2019-03-30T22:24:42.012Z,24.69
2019-03-30T22:44:51.460Z,24.97
2019-03-30T23:05:04.879Z,25.85
2019-03-30T23:25:04.327Z,27.62
2019-03-30T23:45:13.803Z,26.26
